sensor_id;sensor_type;location;lat;lon;timestamp;P1;durP1;ratioP1;P2;durP2;ratioP2
75772;SDS011;64381;0.000;0.000;2022-11-15T00:01:36;6.13;;;4.30;;
75772;SDS011;64381;0.000;0.000;2022-11-15T00:04:01;7.53;;;4.13;;
75772;SDS011;64381;0.000;0.000;2022-11-15T00:06:27;6.97;;;4.40;;
75772;SDS011;64381;0.000;0.000;2022-11-15T00:08:52;7.07;;;4.30;;
75772;SDS011;64381;0.000;0.000;2022-11-15T00:11:17;6.13;;;4.20;;
75772;SDS011;64381;0.000;0.000;2022-11-15T00:13:42;6.23;;;4.00;;
75772;SDS011;64381;0.000;0.000;2022-11-15T00:16:08;6.43;;;3.93;;
75772;SDS011;64381;0.000;0.000;2022-11-15T00:18:34;5.93;;;4.00;;
75772;SDS011;64381;0.000;0.000;2022-11-15T00:21:03;6.90;;;4.20;;
75772;SDS011;64381;0.000;0.000;2022-11-15T00:23:30;5.97;;;4.00;;
75772;SDS011;64381;0.000;0.000;2022-11-15T00:25:58;5.70;;;4.10;;
75772;SDS011;64381;0.000;0.000;2022-11-15T00:28:24;6.78;;;4.30;;
75772;SDS011;64381;0.000;0.000;2022-11-15T00:30:50;5.68;;;3.95;;
75772;SDS011;64381;0.000;0.000;2022-11-15T00:33:15;6.80;;;4.20;;
75772;SDS011;64381;0.000;0.000;2022-11-15T00:35:40;7.20;;;4.10;;
75772;SDS011;64381;0.000;0.000;2022-11-15T00:38:05;6.23;;;4.07;;
75772;SDS011;64381;0.000;0.000;2022-11-15T00:40:31;6.47;;;4.10;;
75772;SDS011;64381;0.000;0.000;2022-11-15T00:42:56;5.30;;;3.80;;
75772;SDS011;64381;0.000;0.000;2022-11-15T00:45:22;6.33;;;3.73;;
75772;SDS011;64381;0.000;0.000;2022-11-15T00:47:47;6.72;;;4.10;;
75772;SDS011;64381;0.000;0.000;2022-11-15T00:50:13;6.30;;;3.57;;
75772;SDS011;64381;0.000;0.000;2022-11-15T00:52:38;6.37;;;3.83;;
75772;SDS011;64381;0.000;0.000;2022-11-15T00:55:04;6.40;;;3.80;;
75772;SDS011;64381;0.000;0.000;2022-11-15T00:57:29;5.87;;;3.70;;
75772;SDS011;64381;0.000;0.000;2022-11-15T00:59:55;5.93;;;3.80;;
75772;SDS011;64381;0.000;0.000;2022-11-15T01:02:20;5.50;;;3.80;;
75772;SDS011;64381;0.000;0.000;2022-11-15T01:04:45;5.47;;;4.10;;
75772;SDS011;64381;0.000;0.000;2022-11-15T01:07:10;6.27;;;3.60;;
75772;SDS011;64381;0.000;0.000;2022-11-15T01:09:36;5.97;;;3.85;;
75772;SDS011;64381;0.000;0.000;2022-11-15T01:12:01;6.83;;;4.17;;
75772;SDS011;64381;0.000;0.000;2022-11-15T01:14:26;6.10;;;3.60;;
75772;SDS011;64381;0.000;0.000;2022-11-15T01:16:52;6.53;;;3.80;;
75772;SDS011;64381;0.000;0.000;2022-11-15T01:19:17;5.87;;;3.50;;
75772;SDS011;64381;0.000;0.000;2022-11-15T01:21:43;6.03;;;3.83;;
75772;SDS011;64381;0.000;0.000;2022-11-15T01:24:09;5.97;;;3.87;;
75772;SDS011;64381;0.000;0.000;2022-11-15T01:26:37;6.20;;;3.70;;
75772;SDS011;64381;0.000;0.000;2022-11-15T01:29:02;5.63;;;3.43;;
75772;SDS011;64381;0.000;0.000;2022-11-15T01:31:28;5.65;;;3.53;;
75772;SDS011;64381;0.000;0.000;2022-11-15T01:33:53;5.93;;;3.50;;
75772;SDS011;64381;0.000;0.000;2022-11-15T01:36:20;7.23;;;4.00;;
75772;SDS011;64381;0.000;0.000;2022-11-15T01:38:47;6.47;;;3.58;;
75772;SDS011;64381;0.000;0.000;2022-11-15T01:41:19;5.23;;;3.33;;
75772;SDS011;64381;0.000;0.000;2022-11-15T01:43:51;6.65;;;3.50;;
75772;SDS011;64381;0.000;0.000;2022-11-15T01:48:46;6.18;;;3.90;;
75772;SDS011;64381;0.000;0.000;2022-11-15T01:51:13;5.60;;;3.70;;
75772;SDS011;64381;0.000;0.000;2022-11-15T01:53:41;5.47;;;3.73;;
75772;SDS011;64381;0.000;0.000;2022-11-15T01:56:14;6.22;;;3.95;;
75772;SDS011;64381;0.000;0.000;2022-11-15T01:58:42;5.13;;;3.55;;
75772;SDS011;64381;0.000;0.000;2022-11-15T02:01:09;5.60;;;3.55;;
75772;SDS011;64381;0.000;0.000;2022-11-15T02:03:37;6.10;;;3.63;;
75772;SDS011;64381;0.000;0.000;2022-11-15T02:06:08;5.15;;;3.38;;
75772;SDS011;64381;0.000;0.000;2022-11-15T02:08:34;5.43;;;3.55;;
75772;SDS011;64381;0.000;0.000;2022-11-15T02:10:59;6.27;;;3.60;;
75772;SDS011;64381;0.000;0.000;2022-11-15T02:13:25;6.13;;;3.60;;
75772;SDS011;64381;0.000;0.000;2022-11-15T02:18:59;5.95;;;3.30;;
75772;SDS011;64381;0.000;0.000;2022-11-15T02:21:40;5.57;;;3.77;;
75772;SDS011;64381;0.000;0.000;2022-11-15T02:24:23;5.47;;;3.47;;
75772;SDS011;64381;0.000;0.000;2022-11-15T02:27:25;5.22;;;3.55;;
75772;SDS011;64381;0.000;0.000;2022-11-15T02:30:04;5.05;;;3.15;;
75772;SDS011;64381;0.000;0.000;2022-11-15T02:32:54;5.60;;;3.17;;
75772;SDS011;64381;0.000;0.000;2022-11-15T02:43:12;5.63;;;3.35;;
75772;SDS011;64381;0.000;0.000;2022-11-15T02:45:44;4.85;;;3.15;;
75772;SDS011;64381;0.000;0.000;2022-11-15T02:48:13;5.45;;;3.20;;
75772;SDS011;64381;0.000;0.000;2022-11-15T02:50:41;5.33;;;3.50;;
75772;SDS011;64381;0.000;0.000;2022-11-15T02:53:08;5.47;;;3.35;;
75772;SDS011;64381;0.000;0.000;2022-11-15T02:55:35;5.05;;;3.15;;
75772;SDS011;64381;0.000;0.000;2022-11-15T03:00:55;5.03;;;3.10;;
75772;SDS011;64381;0.000;0.000;2022-11-15T03:03:30;5.50;;;3.07;;
75772;SDS011;64381;0.000;0.000;2022-11-15T03:09:02;5.22;;;3.33;;
75772;SDS011;64381;0.000;0.000;2022-11-15T03:11:44;4.90;;;3.30;;
75772;SDS011;64381;0.000;0.000;2022-11-15T03:14:27;5.57;;;3.45;;
75772;SDS011;64381;0.000;0.000;2022-11-15T03:17:02;4.60;;;3.10;;
75772;SDS011;64381;0.000;0.000;2022-11-15T03:19:50;5.53;;;3.25;;
75772;SDS011;64381;0.000;0.000;2022-11-15T03:22:19;5.03;;;3.20;;
75772;SDS011;64381;0.000;0.000;2022-11-15T03:24:47;5.03;;;3.20;;
75772;SDS011;64381;0.000;0.000;2022-11-15T03:27:17;4.65;;;3.10;;
75772;SDS011;64381;0.000;0.000;2022-11-15T03:29:48;5.40;;;3.10;;
75772;SDS011;64381;0.000;0.000;2022-11-15T03:32:23;4.72;;;2.90;;
75772;SDS011;64381;0.000;0.000;2022-11-15T03:35:04;4.97;;;3.30;;
75772;SDS011;64381;0.000;0.000;2022-11-15T03:37:35;5.55;;;3.20;;
75772;SDS011;64381;0.000;0.000;2022-11-15T03:40:05;5.30;;;3.50;;
75772;SDS011;64381;0.000;0.000;2022-11-15T03:42:36;4.80;;;3.10;;
75772;SDS011;64381;0.000;0.000;2022-11-15T03:45:16;5.38;;;3.25;;
75772;SDS011;64381;0.000;0.000;2022-11-15T03:47:49;5.22;;;3.50;;
75772;SDS011;64381;0.000;0.000;2022-11-15T03:50:19;4.82;;;3.00;;
75772;SDS011;64381;0.000;0.000;2022-11-15T03:52:47;5.03;;;3.22;;
75772;SDS011;64381;0.000;0.000;2022-11-15T03:55:15;4.87;;;3.13;;
75772;SDS011;64381;0.000;0.000;2022-11-15T03:57:44;5.30;;;3.17;;
75772;SDS011;64381;0.000;0.000;2022-11-15T04:00:09;4.97;;;3.17;;
75772;SDS011;64381;0.000;0.000;2022-11-15T04:02:35;4.40;;;2.80;;
75772;SDS011;64381;0.000;0.000;2022-11-15T04:05:00;5.77;;;3.50;;
75772;SDS011;64381;0.000;0.000;2022-11-15T04:07:25;4.23;;;2.80;;
75772;SDS011;64381;0.000;0.000;2022-11-15T04:09:51;4.93;;;2.90;;
75772;SDS011;64381;0.000;0.000;2022-11-15T04:12:16;4.70;;;2.80;;
75772;SDS011;64381;0.000;0.000;2022-11-15T04:14:41;5.53;;;3.07;;
75772;SDS011;64381;0.000;0.000;2022-11-15T04:17:06;4.77;;;3.00;;
75772;SDS011;64381;0.000;0.000;2022-11-15T04:19:32;5.07;;;3.27;;
75772;SDS011;64381;0.000;0.000;2022-11-15T04:21:57;5.47;;;3.20;;
75772;SDS011;64381;0.000;0.000;2022-11-15T04:24:22;5.13;;;3.00;;
75772;SDS011;64381;0.000;0.000;2022-11-15T04:26:47;3.90;;;2.80;;
75772;SDS011;64381;0.000;0.000;2022-11-15T04:29:13;5.10;;;2.90;;
75772;SDS011;64381;0.000;0.000;2022-11-15T04:31:38;4.77;;;3.00;;
75772;SDS011;64381;0.000;0.000;2022-11-15T04:34:03;4.27;;;2.87;;
75772;SDS011;64381;0.000;0.000;2022-11-15T04:36:28;5.23;;;3.10;;
75772;SDS011;64381;0.000;0.000;2022-11-15T04:38:53;4.70;;;3.03;;
75772;SDS011;64381;0.000;0.000;2022-11-15T04:41:19;4.90;;;3.07;;
75772;SDS011;64381;0.000;0.000;2022-11-15T04:43:44;4.87;;;3.07;;
75772;SDS011;64381;0.000;0.000;2022-11-15T04:46:09;4.40;;;2.80;;
75772;SDS011;64381;0.000;0.000;2022-11-15T04:48:34;4.77;;;3.00;;
75772;SDS011;64381;0.000;0.000;2022-11-15T04:50:59;4.50;;;2.80;;
75772;SDS011;64381;0.000;0.000;2022-11-15T04:53:25;5.30;;;2.83;;
75772;SDS011;64381;0.000;0.000;2022-11-15T04:55:50;4.50;;;2.80;;
75772;SDS011;64381;0.000;0.000;2022-11-15T04:58:15;5.00;;;2.90;;
75772;SDS011;64381;0.000;0.000;2022-11-15T05:00:40;5.07;;;2.80;;
75772;SDS011;64381;0.000;0.000;2022-11-15T05:03:06;4.43;;;2.93;;
75772;SDS011;64381;0.000;0.000;2022-11-15T05:05:31;5.13;;;2.90;;
75772;SDS011;64381;0.000;0.000;2022-11-15T05:07:56;4.50;;;2.70;;
75772;SDS011;64381;0.000;0.000;2022-11-15T05:10:21;4.67;;;2.60;;
75772;SDS011;64381;0.000;0.000;2022-11-15T05:12:47;4.80;;;3.17;;
75772;SDS011;64381;0.000;0.000;2022-11-15T05:15:12;4.97;;;2.90;;
75772;SDS011;64381;0.000;0.000;2022-11-15T05:17:37;4.90;;;2.87;;
75772;SDS011;64381;0.000;0.000;2022-11-15T05:20:03;4.43;;;2.63;;
75772;SDS011;64381;0.000;0.000;2022-11-15T05:22:28;4.60;;;2.80;;
75772;SDS011;64381;0.000;0.000;2022-11-15T05:24:53;5.43;;;2.83;;
75772;SDS011;64381;0.000;0.000;2022-11-15T05:27:18;4.57;;;2.80;;
75772;SDS011;64381;0.000;0.000;2022-11-15T05:29:44;5.20;;;3.20;;
75772;SDS011;64381;0.000;0.000;2022-11-15T05:32:09;4.63;;;2.87;;
75772;SDS011;64381;0.000;0.000;2022-11-15T05:34:36;4.32;;;2.90;;
75772;SDS011;64381;0.000;0.000;2022-11-15T05:37:01;5.03;;;2.77;;
75772;SDS011;64381;0.000;0.000;2022-11-15T05:39:28;4.30;;;2.80;;
75772;SDS011;64381;0.000;0.000;2022-11-15T05:41:57;4.63;;;2.73;;
75772;SDS011;64381;0.000;0.000;2022-11-15T05:44:29;4.25;;;2.80;;
75772;SDS011;64381;0.000;0.000;2022-11-15T05:46:56;4.57;;;2.60;;
75772;SDS011;64381;0.000;0.000;2022-11-15T05:49:22;4.30;;;2.70;;
75772;SDS011;64381;0.000;0.000;2022-11-15T05:51:49;4.60;;;2.78;;
75772;SDS011;64381;0.000;0.000;2022-11-15T05:54:17;4.35;;;3.10;;
75772;SDS011;64381;0.000;0.000;2022-11-15T05:56:44;4.45;;;2.92;;
75772;SDS011;64381;0.000;0.000;2022-11-15T05:59:10;4.27;;;2.63;;
75772;SDS011;64381;0.000;0.000;2022-11-15T06:01:36;4.13;;;2.67;;
75772;SDS011;64381;0.000;0.000;2022-11-15T06:04:02;4.13;;;2.50;;
75772;SDS011;64381;0.000;0.000;2022-11-15T06:06:28;4.28;;;2.60;;
75772;SDS011;64381;0.000;0.000;2022-11-15T06:08:54;4.78;;;2.97;;
75772;SDS011;64381;0.000;0.000;2022-11-15T06:11:19;4.30;;;2.73;;
75772;SDS011;64381;0.000;0.000;2022-11-15T06:13:44;4.23;;;2.63;;
75772;SDS011;64381;0.000;0.000;2022-11-15T06:16:09;6.83;;;2.73;;
75772;SDS011;64381;0.000;0.000;2022-11-15T06:18:35;3.80;;;2.43;;
75772;SDS011;64381;0.000;0.000;2022-11-15T06:21:01;4.33;;;2.50;;
75772;SDS011;64381;0.000;0.000;2022-11-15T06:23:26;4.28;;;2.53;;
75772;SDS011;64381;0.000;0.000;2022-11-15T06:25:52;4.80;;;2.70;;
75772;SDS011;64381;0.000;0.000;2022-11-15T06:28:17;4.43;;;2.60;;
75772;SDS011;64381;0.000;0.000;2022-11-15T06:30:43;4.13;;;2.50;;
75772;SDS011;64381;0.000;0.000;2022-11-15T06:33:08;3.90;;;2.53;;
75772;SDS011;64381;0.000;0.000;2022-11-15T06:35:33;4.27;;;2.60;;
75772;SDS011;64381;0.000;0.000;2022-11-15T06:38:03;4.40;;;2.60;;
75772;SDS011;64381;0.000;0.000;2022-11-15T06:40:32;4.03;;;2.60;;
75772;SDS011;64381;0.000;0.000;2022-11-15T06:43:02;4.47;;;2.45;;
75772;SDS011;64381;0.000;0.000;2022-11-15T06:45:28;4.38;;;2.78;;
75772;SDS011;64381;0.000;0.000;2022-11-15T06:47:53;3.97;;;2.53;;
75772;SDS011;64381;0.000;0.000;2022-11-15T06:50:18;4.63;;;2.67;;
75772;SDS011;64381;0.000;0.000;2022-11-15T06:52:44;4.33;;;2.60;;
75772;SDS011;64381;0.000;0.000;2022-11-15T06:55:09;3.70;;;2.40;;
75772;SDS011;64381;0.000;0.000;2022-11-15T06:57:35;4.37;;;2.60;;
75772;SDS011;64381;0.000;0.000;2022-11-15T07:00:03;4.60;;;2.80;;
75772;SDS011;64381;0.000;0.000;2022-11-15T07:02:29;4.57;;;2.70;;
75772;SDS011;64381;0.000;0.000;2022-11-15T07:04:54;4.77;;;2.70;;
75772;SDS011;64381;0.000;0.000;2022-11-15T07:07:19;4.17;;;2.40;;
75772;SDS011;64381;0.000;0.000;2022-11-15T07:09:45;4.57;;;2.40;;
75772;SDS011;64381;0.000;0.000;2022-11-15T07:12:10;4.30;;;2.73;;
75772;SDS011;64381;0.000;0.000;2022-11-15T07:14:35;4.57;;;2.80;;
75772;SDS011;64381;0.000;0.000;2022-11-15T07:17:02;4.63;;;3.03;;
75772;SDS011;64381;0.000;0.000;2022-11-15T07:19:28;4.93;;;2.60;;
75772;SDS011;64381;0.000;0.000;2022-11-15T07:21:53;4.53;;;2.53;;
75772;SDS011;64381;0.000;0.000;2022-11-15T07:24:19;4.50;;;2.60;;
75772;SDS011;64381;0.000;0.000;2022-11-15T07:26:44;4.30;;;2.50;;
75772;SDS011;64381;0.000;0.000;2022-11-15T07:29:09;4.23;;;2.90;;
75772;SDS011;64381;0.000;0.000;2022-11-15T07:31:34;4.70;;;2.80;;
75772;SDS011;64381;0.000;0.000;2022-11-15T07:34:00;3.97;;;2.63;;
75772;SDS011;64381;0.000;0.000;2022-11-15T07:36:25;4.50;;;2.80;;
75772;SDS011;64381;0.000;0.000;2022-11-15T07:38:50;4.30;;;2.60;;
75772;SDS011;64381;0.000;0.000;2022-11-15T07:41:15;4.60;;;2.83;;
75772;SDS011;64381;0.000;0.000;2022-11-15T07:43:40;4.00;;;2.50;;
75772;SDS011;64381;0.000;0.000;2022-11-15T07:46:06;3.90;;;2.70;;
75772;SDS011;64381;0.000;0.000;2022-11-15T07:48:33;4.55;;;2.65;;
75772;SDS011;64381;0.000;0.000;2022-11-15T07:50:58;4.23;;;2.57;;
75772;SDS011;64381;0.000;0.000;2022-11-15T07:53:23;4.30;;;2.93;;
75772;SDS011;64381;0.000;0.000;2022-11-15T07:55:48;4.53;;;2.70;;
75772;SDS011;64381;0.000;0.000;2022-11-15T07:58:13;4.27;;;2.77;;
75772;SDS011;64381;0.000;0.000;2022-11-15T08:00:39;5.10;;;2.70;;
75772;SDS011;64381;0.000;0.000;2022-11-15T08:03:05;4.60;;;2.70;;
75772;SDS011;64381;0.000;0.000;2022-11-15T08:05:32;4.32;;;2.63;;
75772;SDS011;64381;0.000;0.000;2022-11-15T08:07:58;4.17;;;2.60;;
75772;SDS011;64381;0.000;0.000;2022-11-15T08:10:23;4.47;;;2.65;;
75772;SDS011;64381;0.000;0.000;2022-11-15T08:12:56;4.20;;;2.60;;
75772;SDS011;64381;0.000;0.000;2022-11-15T08:15:25;5.28;;;2.60;;
75772;SDS011;64381;0.000;0.000;2022-11-15T08:17:55;4.83;;;2.90;;
75772;SDS011;64381;0.000;0.000;2022-11-15T08:20:21;3.70;;;2.42;;
75772;SDS011;64381;0.000;0.000;2022-11-15T08:22:46;4.17;;;2.50;;
75772;SDS011;64381;0.000;0.000;2022-11-15T08:25:11;4.03;;;2.50;;
75772;SDS011;64381;0.000;0.000;2022-11-15T08:27:37;4.70;;;2.60;;
75772;SDS011;64381;0.000;0.000;2022-11-15T08:30:02;4.20;;;2.60;;
75772;SDS011;64381;0.000;0.000;2022-11-15T08:32:28;4.28;;;2.67;;
75772;SDS011;64381;0.000;0.000;2022-11-15T08:34:53;4.23;;;2.60;;
75772;SDS011;64381;0.000;0.000;2022-11-15T08:37:18;3.97;;;2.57;;
75772;SDS011;64381;0.000;0.000;2022-11-15T08:39:43;4.60;;;2.70;;
75772;SDS011;64381;0.000;0.000;2022-11-15T08:42:09;4.00;;;2.60;;
75772;SDS011;64381;0.000;0.000;2022-11-15T08:44:34;3.87;;;2.40;;
75772;SDS011;64381;0.000;0.000;2022-11-15T08:46:59;4.47;;;2.50;;
75772;SDS011;64381;0.000;0.000;2022-11-15T08:49:24;3.80;;;2.50;;
75772;SDS011;64381;0.000;0.000;2022-11-15T08:51:49;4.30;;;2.33;;
75772;SDS011;64381;0.000;0.000;2022-11-15T08:54:15;4.40;;;2.37;;
75772;SDS011;64381;0.000;0.000;2022-11-15T08:56:40;4.43;;;2.33;;
75772;SDS011;64381;0.000;0.000;2022-11-15T08:59:05;4.40;;;2.63;;
75772;SDS011;64381;0.000;0.000;2022-11-15T09:01:31;4.60;;;2.70;;
75772;SDS011;64381;0.000;0.000;2022-11-15T09:03:56;3.90;;;2.57;;
75772;SDS011;64381;0.000;0.000;2022-11-15T09:06:21;4.50;;;2.70;;
75772;SDS011;64381;0.000;0.000;2022-11-15T09:08:46;3.80;;;2.30;;
75772;SDS011;64381;0.000;0.000;2022-11-15T09:11:11;4.40;;;2.70;;
75772;SDS011;64381;0.000;0.000;2022-11-15T09:13:37;4.10;;;2.50;;
75772;SDS011;64381;0.000;0.000;2022-11-15T09:16:02;3.90;;;2.60;;
75772;SDS011;64381;0.000;0.000;2022-11-15T09:18:28;4.32;;;2.60;;
75772;SDS011;64381;0.000;0.000;2022-11-15T09:20:55;4.13;;;2.43;;
75772;SDS011;64381;0.000;0.000;2022-11-15T09:23:23;4.07;;;2.45;;
75772;SDS011;64381;0.000;0.000;2022-11-15T09:25:49;4.22;;;2.53;;
75772;SDS011;64381;0.000;0.000;2022-11-15T09:28:14;3.97;;;2.27;;
75772;SDS011;64381;0.000;0.000;2022-11-15T09:30:39;4.03;;;2.30;;
75772;SDS011;64381;0.000;0.000;2022-11-15T09:33:08;4.50;;;2.67;;
75772;SDS011;64381;0.000;0.000;2022-11-15T09:35:34;3.92;;;2.47;;
75772;SDS011;64381;0.000;0.000;2022-11-15T09:38:00;4.20;;;2.70;;
75772;SDS011;64381;0.000;0.000;2022-11-15T09:40:26;4.23;;;2.60;;
75772;SDS011;64381;0.000;0.000;2022-11-15T09:48:46;4.10;;;2.50;;
75772;SDS011;64381;0.000;0.000;2022-11-15T09:51:25;3.72;;;2.58;;
75772;SDS011;64381;0.000;0.000;2022-11-15T09:56:39;6.03;;;2.53;;
75772;SDS011;64381;0.000;0.000;2022-11-15T09:59:27;4.07;;;2.40;;
75772;SDS011;64381;0.000;0.000;2022-11-15T10:04:18;3.70;;;2.50;;
75772;SDS011;64381;0.000;0.000;2022-11-15T10:06:51;3.97;;;2.35;;
75772;SDS011;64381;0.000;0.000;2022-11-15T10:09:36;3.85;;;2.42;;
75772;SDS011;64381;0.000;0.000;2022-11-15T10:12:09;3.95;;;2.47;;
75772;SDS011;64381;0.000;0.000;2022-11-15T10:14:36;3.93;;;2.40;;
75772;SDS011;64381;0.000;0.000;2022-11-15T10:17:05;4.20;;;2.50;;
75772;SDS011;64381;0.000;0.000;2022-11-15T10:25:26;3.72;;;2.35;;
75772;SDS011;64381;0.000;0.000;2022-11-15T10:27:57;4.13;;;2.33;;
75772;SDS011;64381;0.000;0.000;2022-11-15T10:30:38;3.80;;;2.35;;
75772;SDS011;64381;0.000;0.000;2022-11-15T10:33:10;3.83;;;2.40;;
75772;SDS011;64381;0.000;0.000;2022-11-15T10:35:36;4.03;;;2.28;;
75772;SDS011;64381;0.000;0.000;2022-11-15T10:38:08;4.17;;;2.30;;
75772;SDS011;64381;0.000;0.000;2022-11-15T10:40:35;3.95;;;2.45;;
75772;SDS011;64381;0.000;0.000;2022-11-15T10:45:36;3.88;;;2.20;;
75772;SDS011;64381;0.000;0.000;2022-11-15T10:50:36;4.07;;;2.30;;
75772;SDS011;64381;0.000;0.000;2022-11-15T10:53:02;4.10;;;2.35;;
75772;SDS011;64381;0.000;0.000;2022-11-15T10:55:29;3.93;;;2.30;;
75772;SDS011;64381;0.000;0.000;2022-11-15T10:58:00;4.35;;;2.30;;
75772;SDS011;64381;0.000;0.000;2022-11-15T11:00:30;4.22;;;2.30;;
75772;SDS011;64381;0.000;0.000;2022-11-15T11:03:01;4.10;;;2.40;;
75772;SDS011;64381;0.000;0.000;2022-11-15T11:08:00;3.70;;;2.07;;
75772;SDS011;64381;0.000;0.000;2022-11-15T11:10:30;4.00;;;2.40;;
75772;SDS011;64381;0.000;0.000;2022-11-15T11:12:55;4.40;;;2.50;;
75772;SDS011;64381;0.000;0.000;2022-11-15T11:15:21;4.30;;;2.30;;
75772;SDS011;64381;0.000;0.000;2022-11-15T11:18:02;3.53;;;2.13;;
75772;SDS011;64381;0.000;0.000;2022-11-15T11:20:40;4.37;;;2.20;;
75772;SDS011;64381;0.000;0.000;2022-11-15T11:23:25;3.75;;;2.20;;
75772;SDS011;64381;0.000;0.000;2022-11-15T11:37:39;3.70;;;2.30;;
75772;SDS011;64381;0.000;0.000;2022-11-15T11:45:40;3.47;;;2.13;;
75772;SDS011;64381;0.000;0.000;2022-11-15T11:51:18;3.45;;;2.05;;
75772;SDS011;64381;0.000;0.000;2022-11-15T11:53:56;3.83;;;2.30;;
75772;SDS011;64381;0.000;0.000;2022-11-15T11:56:29;3.90;;;2.20;;
75772;SDS011;64381;0.000;0.000;2022-11-15T11:59:01;3.60;;;2.10;;
75772;SDS011;64381;0.000;0.000;2022-11-15T12:01:37;3.63;;;2.10;;
75772;SDS011;64381;0.000;0.000;2022-11-15T12:04:13;3.80;;;2.00;;
75772;SDS011;64381;0.000;0.000;2022-11-15T12:12:47;3.72;;;2.30;;
75772;SDS011;64381;0.000;0.000;2022-11-15T12:15:29;3.83;;;2.27;;
75772;SDS011;64381;0.000;0.000;2022-11-15T12:17:58;3.67;;;2.17;;
75772;SDS011;64381;0.000;0.000;2022-11-15T12:20:27;4.20;;;2.33;;
75772;SDS011;64381;0.000;0.000;2022-11-15T12:23:03;3.85;;;2.15;;
75772;SDS011;64381;0.000;0.000;2022-11-15T12:28:40;3.63;;;2.00;;
75772;SDS011;64381;0.000;0.000;2022-11-15T12:31:26;3.72;;;2.15;;
75772;SDS011;64381;0.000;0.000;2022-11-15T12:34:00;3.95;;;2.10;;
75772;SDS011;64381;0.000;0.000;2022-11-15T12:39:07;3.53;;;2.10;;
75772;SDS011;64381;0.000;0.000;2022-11-15T12:41:44;3.77;;;2.20;;
75772;SDS011;64381;0.000;0.000;2022-11-15T13:02:32;3.73;;;2.20;;
75772;SDS011;64381;0.000;0.000;2022-11-15T13:17:45;3.60;;;2.30;;
75772;SDS011;64381;0.000;0.000;2022-11-15T13:22:41;3.80;;;2.43;;
75772;SDS011;64381;0.000;0.000;2022-11-15T13:25:14;4.07;;;2.28;;
75772;SDS011;64381;0.000;0.000;2022-11-15T13:27:42;3.67;;;2.00;;
75772;SDS011;64381;0.000;0.000;2022-11-15T13:30:14;4.00;;;1.97;;
75772;SDS011;64381;0.000;0.000;2022-11-15T13:32:44;4.50;;;2.20;;
75772;SDS011;64381;0.000;0.000;2022-11-15T13:35:09;3.87;;;2.10;;
75772;SDS011;64381;0.000;0.000;2022-11-15T13:37:34;3.90;;;2.20;;
75772;SDS011;64381;0.000;0.000;2022-11-15T13:42:46;3.40;;;2.20;;
75772;SDS011;64381;0.000;0.000;2022-11-15T13:45:15;3.63;;;2.27;;
75772;SDS011;64381;0.000;0.000;2022-11-15T13:59:57;3.85;;;2.10;;
75772;SDS011;64381;0.000;0.000;2022-11-15T14:02:27;3.90;;;2.33;;
75772;SDS011;64381;0.000;0.000;2022-11-15T14:04:57;4.30;;;2.40;;
75772;SDS011;64381;0.000;0.000;2022-11-15T14:07:27;4.38;;;2.30;;
75772;SDS011;64381;0.000;0.000;2022-11-15T14:09:52;3.65;;;2.10;;
75772;SDS011;64381;0.000;0.000;2022-11-15T14:12:26;17.37;;;2.67;;
75772;SDS011;64381;0.000;0.000;2022-11-15T14:14:53;31.10;;;5.18;;
75772;SDS011;64381;0.000;0.000;2022-11-15T14:17:20;36.60;;;5.77;;
75772;SDS011;64381;0.000;0.000;2022-11-15T14:19:58;36.10;;;5.95;;
75772;SDS011;64381;0.000;0.000;2022-11-15T14:22:24;30.37;;;5.33;;
75772;SDS011;64381;0.000;0.000;2022-11-15T14:25:07;27.27;;;5.35;;
75772;SDS011;64381;0.000;0.000;2022-11-15T14:27:38;34.10;;;5.20;;
75772;SDS011;64381;0.000;0.000;2022-11-15T14:30:04;21.95;;;5.15;;
75772;SDS011;64381;0.000;0.000;2022-11-15T14:32:40;31.30;;;5.87;;
75772;SDS011;64381;0.000;0.000;2022-11-15T14:35:12;32.17;;;5.65;;
75772;SDS011;64381;0.000;0.000;2022-11-15T14:37:40;19.30;;;4.68;;
75772;SDS011;64381;0.000;0.000;2022-11-15T14:40:05;21.63;;;4.97;;
75772;SDS011;64381;0.000;0.000;2022-11-15T14:42:31;21.80;;;6.03;;
75772;SDS011;64381;0.000;0.000;2022-11-15T14:44:57;27.00;;;5.33;;
75772;SDS011;64381;0.000;0.000;2022-11-15T14:47:23;23.23;;;4.88;;
75772;SDS011;64381;0.000;0.000;2022-11-15T14:49:48;22.67;;;5.37;;
75772;SDS011;64381;0.000;0.000;2022-11-15T14:52:23;19.03;;;4.83;;
75772;SDS011;64381;0.000;0.000;2022-11-15T14:54:49;22.40;;;4.35;;
75772;SDS011;64381;0.000;0.000;2022-11-15T14:57:14;15.20;;;5.20;;
75772;SDS011;64381;0.000;0.000;2022-11-15T14:59:39;14.67;;;3.80;;
75772;SDS011;64381;0.000;0.000;2022-11-15T15:02:09;13.10;;;4.20;;
75772;SDS011;64381;0.000;0.000;2022-11-15T15:04:48;19.10;;;4.40;;
75772;SDS011;64381;0.000;0.000;2022-11-15T15:07:14;20.33;;;4.73;;
75772;SDS011;64381;0.000;0.000;2022-11-15T15:09:39;14.33;;;4.43;;
75772;SDS011;64381;0.000;0.000;2022-11-15T15:12:10;16.02;;;4.70;;
75772;SDS011;64381;0.000;0.000;2022-11-15T15:14:40;22.77;;;5.18;;
75772;SDS011;64381;0.000;0.000;2022-11-15T15:17:06;14.77;;;4.83;;
75772;SDS011;64381;0.000;0.000;2022-11-15T15:19:31;18.07;;;4.33;;
75772;SDS011;64381;0.000;0.000;2022-11-15T15:21:56;19.03;;;4.57;;
75772;SDS011;64381;0.000;0.000;2022-11-15T15:24:21;15.77;;;4.37;;
75772;SDS011;64381;0.000;0.000;2022-11-15T15:26:47;11.87;;;4.03;;
75772;SDS011;64381;0.000;0.000;2022-11-15T15:29:12;14.87;;;4.63;;
75772;SDS011;64381;0.000;0.000;2022-11-15T15:31:37;13.70;;;4.30;;
75772;SDS011;64381;0.000;0.000;2022-11-15T15:34:02;16.90;;;4.70;;
75772;SDS011;64381;0.000;0.000;2022-11-15T15:36:28;11.70;;;4.23;;
75772;SDS011;64381;0.000;0.000;2022-11-15T15:38:53;16.27;;;4.80;;
75772;SDS011;64381;0.000;0.000;2022-11-15T15:41:18;12.67;;;4.60;;
75772;SDS011;64381;0.000;0.000;2022-11-15T15:43:43;11.53;;;4.93;;
75772;SDS011;64381;0.000;0.000;2022-11-15T15:46:09;10.80;;;4.23;;
75772;SDS011;64381;0.000;0.000;2022-11-15T15:48:37;9.73;;;4.28;;
75772;SDS011;64381;0.000;0.000;2022-11-15T15:51:02;12.70;;;4.33;;
75772;SDS011;64381;0.000;0.000;2022-11-15T15:53:27;11.00;;;4.00;;
75772;SDS011;64381;0.000;0.000;2022-11-15T15:55:53;11.00;;;4.50;;
75772;SDS011;64381;0.000;0.000;2022-11-15T15:58:18;10.90;;;4.20;;
75772;SDS011;64381;0.000;0.000;2022-11-15T16:00:43;9.53;;;4.03;;
75772;SDS011;64381;0.000;0.000;2022-11-15T16:03:08;10.60;;;4.17;;
75772;SDS011;64381;0.000;0.000;2022-11-15T16:05:33;11.53;;;4.53;;
75772;SDS011;64381;0.000;0.000;2022-11-15T16:07:59;12.53;;;4.60;;
75772;SDS011;64381;0.000;0.000;2022-11-15T16:10:25;12.67;;;5.47;;
75772;SDS011;64381;0.000;0.000;2022-11-15T16:12:52;11.13;;;4.30;;
75772;SDS011;64381;0.000;0.000;2022-11-15T16:15:19;13.27;;;4.60;;
75772;SDS011;64381;0.000;0.000;2022-11-15T16:17:49;10.63;;;4.40;;
75772;SDS011;64381;0.000;0.000;2022-11-15T16:20:30;9.07;;;3.88;;
75772;SDS011;64381;0.000;0.000;2022-11-15T16:23:09;12.82;;;4.50;;
75772;SDS011;64381;0.000;0.000;2022-11-15T16:28:26;12.57;;;4.28;;
75772;SDS011;64381;0.000;0.000;2022-11-15T16:31:01;11.70;;;4.47;;
75772;SDS011;64381;0.000;0.000;2022-11-15T16:33:28;10.45;;;4.53;;
75772;SDS011;64381;0.000;0.000;2022-11-15T16:35:53;10.53;;;4.63;;
75772;SDS011;64381;0.000;0.000;2022-11-15T16:38:18;10.83;;;4.30;;
75772;SDS011;64381;0.000;0.000;2022-11-15T16:40:43;12.67;;;4.63;;
75772;SDS011;64381;0.000;0.000;2022-11-15T16:43:09;10.83;;;5.10;;
75772;SDS011;64381;0.000;0.000;2022-11-15T16:45:34;13.05;;;5.35;;
75772;SDS011;64381;0.000;0.000;2022-11-15T16:48:00;11.57;;;5.60;;
75772;SDS011;64381;0.000;0.000;2022-11-15T16:50:26;9.50;;;4.87;;
75772;SDS011;64381;0.000;0.000;2022-11-15T16:52:54;13.60;;;5.70;;
75772;SDS011;64381;0.000;0.000;2022-11-15T16:55:21;11.57;;;5.35;;
75772;SDS011;64381;0.000;0.000;2022-11-15T16:57:49;13.02;;;5.40;;
75772;SDS011;64381;0.000;0.000;2022-11-15T17:00:15;10.47;;;5.33;;
75772;SDS011;64381;0.000;0.000;2022-11-15T17:02:48;11.95;;;5.30;;
75772;SDS011;64381;0.000;0.000;2022-11-15T17:05:15;9.45;;;5.07;;
75772;SDS011;64381;0.000;0.000;2022-11-15T17:07:42;13.37;;;5.50;;
75772;SDS011;64381;0.000;0.000;2022-11-15T17:10:08;11.98;;;5.22;;